Time;durP1;ratioP1;P1;durP2;ratioP2;P2;SDS_P1;SDS_P2;PMS_P1;PMS_P2;Temp;Humidity;BMP_temperature;BMP_pressure;BME280_temperature;BME280_humidity;BME280_pressure;Samples;Min_cycle;Max_cycle;Signal;HPM_P1;HPM_P2
2024/03/04 00:00:20;;;;;;;82.87;56.20;;;8.70;99.30;;;;;;5070050;27;20465;-63
2024/03/04 00:02:47;;;;;;;82.53;58.47;;;8.70;99.90;;;;;;5070495;28;20827;-64
2024/03/04 00:05:15;;;;;;;86.40;59.13;;;8.70;66.80;;;;;;5069588;28;20466;-63
2024/03/04 00:07:42;;;;;;;90.30;58.40;;;8.70;70.60;;;;;;5069726;28;20490;-63
2024/03/04 00:10:10;;;;;;;85.10;57.53;;;8.70;8.90;;;;;;5068923;28;20469;-63
2024/03/04 00:12:37;;;;;;;77.30;54.10;;;8.70;1.00;;;;;;5070125;28;20462;-63
2024/03/04 00:15:08;;;;;;;80.00;56.87;;;8.70;1.00;;;;;;5071065;27;20462;-64
2024/03/04 00:17:36;;;;;;;81.17;55.37;;;8.70;1.00;;;;;;5069988;27;20462;-64
2024/03/04 00:20:06;;;;;;;80.13;53.30;;;8.70;1.00;;;;;;5070994;27;20896;-64
2024/03/04 00:22:33;;;;;;;82.53;53.47;;;8.70;1.00;;;;;;5071109;27;20471;-63
2024/03/04 00:25:01;;;;;;;76.60;55.37;;;8.70;1.00;;;;;;5069951;28;20487;-64
2024/03/04 00:27:28;;;;;;;78.90;55.20;;;8.70;1.00;;;;;;5070942;28;20578;-64
2024/03/04 00:29:56;;;;;;;80.50;54.90;;;8.70;1.00;;;;;;5069700;27;20584;-64
2024/03/04 00:32:25;;;;;;;85.30;56.53;;;8.60;1.00;;;;;;5070097;28;20465;-63
2024/03/04 00:34:53;;;;;;;78.50;52.30;;;8.70;1.00;;;;;;5069370;27;20529;-63
2024/03/04 00:37:21;;;;;;;83.57;54.03;;;8.60;1.00;;;;;;5069494;27;20724;-63
2024/03/04 00:39:48;;;;;;;77.67;52.00;;;8.60;1.00;;;;;;5068796;27;20454;-63
2024/03/04 00:42:17;;;;;;;82.90;54.13;;;8.60;1.00;;;;;;5070415;28;20458;-64
2024/03/04 00:44:44;;;;;;;88.77;56.30;;;8.50;1.00;;;;;;5069699;28;20485;-64
2024/03/04 00:47:12;;;;;;;90.87;61.57;;;8.50;1.00;;;;;;5069575;28;20462;-63
2024/03/04 00:49:40;;;;;;;84.57;56.63;;;8.50;1.00;;;;;;5068483;28;20486;-63
2024/03/04 00:52:07;;;;;;;92.57;59.40;;;8.40;1.00;;;;;;5069281;27;20465;-64
2024/03/04 00:54:35;;;;;;;94.43;58.63;;;8.40;1.00;;;;;;5068695;27;20524;-64
2024/03/04 00:57:03;;;;;;;98.30;62.67;;;8.40;1.00;;;;;;5068355;28;20505;-64
2024/03/04 00:59:31;;;;;;;97.47;61.63;;;8.30;19.80;;;;;;5068882;27;20464;-63
2024/03/04 01:01:58;;;;;;;102.70;60.17;;;8.30;57.10;;;;;;5069106;27;20458;-63
2024/03/04 01:04:25;;;;;;;97.93;61.40;;;8.40;98.30;;;;;;5068448;28;20463;-63
2024/03/04 01:06:54;;;;;;;94.93;63.97;;;8.40;96.90;;;;;;5069299;27;20942;-63
2024/03/04 01:09:21;;;;;;;96.53;58.40;;;8.30;77.50;;;;;;5068643;27;20512;-63
2024/03/04 01:11:48;;;;;;;96.17;59.83;;;8.20;99.90;;;;;;5068558;27;20550;-63
2024/03/04 01:14:16;;;;;;;100.93;63.27;;;8.10;99.90;;;;;;5069520;28;20469;-63
2024/03/04 01:16:43;;;;;;;93.23;58.27;;;8.10;99.90;;;;;;5068104;27;20466;-64
2024/03/04 01:19:11;;;;;;;99.70;62.50;;;8.10;99.90;;;;;;5069628;27;20487;-63
2024/03/04 01:21:39;;;;;;;95.43;60.00;;;8.20;99.90;;;;;;5068884;28;20477;-63
2024/03/04 01:24:09;;;;;;;97.07;60.73;;;8.20;99.90;;;;;;5069111;28;20500;-63
2024/03/04 01:26:37;;;;;;;99.23;61.63;;;8.20;99.90;;;;;;5068138;27;20471;-63
2024/03/04 01:29:04;;;;;;;110.03;61.27;;;8.20;99.90;;;;;;5068505;28;20495;-63
2024/03/04 01:31:32;;;;;;;103.30;60.17;;;8.30;99.90;;;;;;5068770;28;20505;-64
2024/03/04 01:33:59;;;;;;;100.90;58.83;;;8.30;99.90;;;;;;5068869;28;20463;-63
2024/03/04 01:36:26;;;;;;;102.90;59.30;;;8.30;99.90;;;;;;5068075;28;20460;-63
2024/03/04 01:38:54;;;;;;;92.50;58.90;;;8.20;99.90;;;;;;5067923;28;20486;-63
2024/03/04 01:41:22;;;;;;;90.27;56.00;;;8.20;99.90;;;;;;5068311;28;20527;-63
2024/03/04 01:43:50;;;;;;;92.10;57.33;;;8.10;99.90;;;;;;5068084;28;20451;-63
2024/03/04 01:46:19;;;;;;;87.20;55.77;;;8.20;99.90;;;;;;5067654;27;20462;-63
2024/03/04 01:48:47;;;;;;;93.87;57.70;;;8.20;99.90;;;;;;5067277;28;20588;-63
2024/03/04 01:51:16;;;;;;;90.37;56.20;;;8.20;99.90;;;;;;5066810;27;20477;-63
2024/03/04 01:53:44;;;;;;;84.57;54.00;;;8.30;99.90;;;;;;5067336;27;20469;-63
2024/03/04 01:56:12;;;;;;;98.73;54.33;;;8.20;99.90;;;;;;5067411;27;20521;-63
2024/03/04 01:58:47;;;;;;;83.73;54.27;;;8.20;99.90;;;;;;5068729;28;20465;-63
2024/03/04 02:01:15;;;;;;;90.00;57.43;;;8.10;99.90;;;;;;5068716;27;20468;-63
2024/03/04 02:03:43;;;;;;;77.40;51.80;;;8.10;99.90;;;;;;5068726;27;20511;-63
2024/03/04 02:06:10;;;;;;;79.93;52.13;;;8.10;99.90;;;;;;5069046;28;20462;-64
2024/03/04 02:08:38;;;;;;;82.13;53.67;;;8.10;99.90;;;;;;5067775;28;20497;-63
2024/03/04 02:11:06;;;;;;;77.70;51.43;;;8.00;99.90;;;;;;5068557;28;20462;-63
2024/03/04 02:13:36;;;;;;;83.63;53.03;;;8.10;99.90;;;;;;5068199;28;20887;-63
2024/03/04 02:16:06;;;;;;;77.97;50.37;;;8.10;99.90;;;;;;5068398;27;20466;-63
2024/03/04 02:18:34;;;;;;;83.50;52.40;;;8.00;99.90;;;;;;5069048;27;20470;-63
2024/03/04 02:21:03;;;;;;;85.80;53.13;;;7.90;99.90;;;;;;5069253;27;20511;-63
2024/03/04 02:23:32;;;;;;;81.47;52.73;;;8.00;99.90;;;;;;5068630;27;20519;-63
2024/03/04 02:26:00;;;;;;;83.57;51.17;;;7.90;99.90;;;;;;5069294;27;20462;-63
2024/03/04 02:28:28;;;;;;;89.63;52.57;;;7.90;99.90;;;;;;5069916;27;20533;-63
2024/03/04 02:30:59;;;;;;;93.37;56.93;;;7.90;99.90;;;;;;5069474;27;20517;-63
2024/03/04 02:33:26;;;;;;;88.13;52.27;;;8.00;99.90;;;;;;5069258;27;20487;-64
2024/03/04 02:35:54;;;;;;;87.47;54.00;;;8.00;99.90;;;;;;5068317;28;20462;-63
2024/03/04 02:38:22;;;;;;;92.77;57.17;;;8.00;99.90;;;;;;5068738;28;20447;-63
2024/03/04 02:40:53;;;;;;;90.37;56.37;;;8.00;99.90;;;;;;5066695;27;20462;-64
2024/03/04 02:43:21;;;;;;;90.00;55.77;;;8.00;99.90;;;;;;5067634;28;20466;-63
2024/03/04 02:45:48;;;;;;;87.57;54.57;;;8.10;99.90;;;;;;5068170;27;20458;-63
2024/03/04 02:48:16;;;;;;;86.30;53.03;;;8.10;99.90;;;;;;5067443;28;20458;-63
2024/03/04 02:50:43;;;;;;;89.77;53.33;;;8.10;99.90;;;;;;5067351;28;20462;-63
2024/03/04 02:53:11;;;;;;;84.83;51.47;;;8.10;99.90;;;;;;5066904;27;20973;-63
2024/03/04 02:55:38;;;;;;;82.30;50.77;;;8.20;99.90;;;;;;5065956;27;20483;-63
2024/03/04 02:58:07;;;;;;;81.70;52.10;;;8.10;99.90;;;;;;5065919;27;20492;-63
2024/03/04 03:00:34;;;;;;;76.30;49.47;;;8.10;99.90;;;;;;5067242;28;20932;-63
2024/03/04 03:03:01;;;;;;;73.57;50.10;;;8.00;99.90;;;;;;5067514;28;20458;-63
2024/03/04 03:05:29;;;;;;;77.03;50.13;;;8.00;99.90;;;;;;5066987;28;20529;-63
2024/03/04 03:07:56;;;;;;;75.70;48.30;;;8.00;99.90;;;;;;5066506;28;20469;-63
2024/03/04 03:10:23;;;;;;;81.47;49.23;;;8.10;99.90;;;;;;5066997;28;20503;-63
2024/03/04 03:12:51;;;;;;;82.17;51.10;;;8.10;99.90;;;;;;5066411;28;20762;-63
2024/03/04 03:15:19;;;;;;;75.83;49.57;;;8.10;99.90;;;;;;5066096;28;20469;-63
2024/03/04 03:17:47;;;;;;;76.30;47.60;;;8.20;99.90;;;;;;5065006;28;20482;-63
2024/03/04 03:20:16;;;;;;;84.37;49.57;;;8.20;99.90;;;;;;5064749;28;20486;-63
2024/03/04 03:22:45;;;;;;;74.90;47.70;;;8.10;60.40;;;;;;5065797;28;20454;-63
2024/03/04 03:25:12;;;;;;;71.87;45.10;;;8.10;34.80;;;;;;5065506;28;20476;-63
2024/03/04 03:27:40;;;;;;;79.07;47.10;;;8.10;1.00;;;;;;5065468;28;20466;-63
2024/03/04 03:30:08;;;;;;;71.53;45.23;;;8.20;99.90;;;;;;5065568;28;20494;-63
2024/03/04 03:32:38;;;;;;;73.07;45.93;;;8.10;56.80;;;;;;5066107;28;20569;-64
2024/03/04 03:35:06;;;;;;;67.50;45.27;;;8.10;66.50;;;;;;5065150;28;20501;-63
2024/03/04 03:37:34;;;;;;;67.03;42.90;;;8.10;99.90;;;;;;5065802;28;20545;-63
2024/03/04 03:40:02;;;;;;;68.47;46.50;;;8.10;1.00;;;;;;5065332;28;20514;-63
2024/03/04 03:42:32;;;;;;;70.03;44.30;;;8.10;45.60;;;;;;5065621;28;20462;-63
2024/03/04 03:44:59;;;;;;;70.83;45.37;;;8.00;99.90;;;;;;5065895;28;20461;-63
2024/03/04 03:47:26;;;;;;;71.67;44.33;;;8.00;99.90;;;;;;5065706;28;20466;-63
2024/03/04 03:49:54;;;;;;;74.77;46.80;;;8.10;99.90;;;;;;5065461;28;20558;-64
2024/03/04 03:52:22;;;;;;;73.53;45.67;;;8.00;99.90;;;;;;5066177;28;20462;-63
2024/03/04 03:54:49;;;;;;;77.43;45.10;;;8.00;99.90;;;;;;5066241;28;20483;-63
2024/03/04 03:57:16;;;;;;;80.77;48.80;;;7.90;99.90;;;;;;5067570;28;20533;-63
2024/03/04 03:59:43;;;;;;;75.97;45.57;;;7.90;99.90;;;;;;5066187;28;20482;-64
2024/03/04 04:02:12;;;;;;;75.33;45.03;;;7.80;99.90;;;;;;5065403;28;20462;-63
2024/03/04 04:04:40;;;;;;;71.03;41.83;;;7.90;99.90;;;;;;5065367;28;20462;-63
2024/03/04 04:07:08;;;;;;;61.90;40.93;;;7.80;99.90;;;;;;5066256;28;20458;-63
2024/03/04 04:09:36;;;;;;;65.47;41.63;;;7.80;99.90;;;;;;5065705;28;20493;-64
2024/03/04 04:12:03;;;;;;;61.63;40.97;;;7.80;99.90;;;;;;5066513;28;20462;-63
2024/03/04 04:14:30;;;;;;;62.23;40.73;;;7.80;99.90;;;;;;5066224;28;20526;-64
2024/03/04 04:16:57;;;;;;;66.20;39.80;;;7.80;99.90;;;;;;5066511;28;20486;-63
2024/03/04 04:19:25;;;;;;;65.47;39.63;;;7.80;99.90;;;;;;5066421;28;20459;-63
2024/03/04 04:21:52;;;;;;;61.83;38.50;;;7.90;99.90;;;;;;5066327;28;20495;-63
2024/03/04 04:24:20;;;;;;;68.43;41.17;;;7.90;99.90;;;;;;5065936;28;20525;-63
2024/03/04 04:26:47;;;;;;;59.63;39.13;;;7.70;99.90;;;;;;5066932;28;20458;-63
2024/03/04 04:29:15;;;;;;;60.07;39.20;;;7.70;99.90;;;;;;5066624;28;20486;-63
2024/03/04 04:31:42;;;;;;;64.10;40.67;;;7.70;99.90;;;;;;5066359;28;20529;-63
2024/03/04 04:34:09;;;;;;;65.37;39.07;;;7.70;99.90;;;;;;5066668;28;20521;-63
2024/03/04 04:36:37;;;;;;;62.57;38.67;;;7.70;99.90;;;;;;5067196;28;20482;-63
2024/03/04 04:39:04;;;;;;;65.33;40.20;;;7.70;99.90;;;;;;5066583;28;20462;-63
2024/03/04 04:41:33;;;;;;;65.27;38.93;;;7.70;99.90;;;;;;5066700;28;20493;-63
2024/03/04 04:44:01;;;;;;;61.80;38.03;;;7.70;99.90;;;;;;5065886;28;20473;-63
2024/03/04 04:46:28;;;;;;;64.53;38.80;;;7.70;99.90;;;;;;5067437;28;20511;-63
2024/03/04 04:48:55;;;;;;;67.90;39.37;;;7.60;99.90;;;;;;5069255;28;20493;-63
2024/03/04 04:51:22;;;;;;;61.70;39.37;;;7.60;99.90;;;;;;5069558;27;20458;-63
2024/03/04 04:53:49;;;;;;;61.43;39.00;;;7.50;99.90;;;;;;5070346;27;20455;-63
2024/03/04 04:56:17;;;;;;;60.70;38.63;;;7.60;99.90;;;;;;5062931;28;20526;-63
2024/03/04 04:58:46;;;;;;;67.80;40.13;;;7.60;99.90;;;;;;5066965;28;20548;-63
2024/03/04 05:01:13;;;;;;;60.50;36.33;;;7.60;99.90;;;;;;5069200;27;20455;-63
2024/03/04 05:03:40;;;;;;;56.93;35.50;;;7.70;99.90;;;;;;5068844;28;20552;-63
2024/03/04 05:06:08;;;;;;;49.37;30.73;;;7.70;99.90;;;;;;5069272;27;20462;-63
2024/03/04 05:08:35;;;;;;;49.40;32.00;;;7.60;99.90;;;;;;5070294;27;20462;-63
2024/03/04 05:11:02;;;;;;;51.20;34.20;;;7.50;99.90;;;;;;5070025;28;20521;-63
2024/03/04 05:13:29;;;;;;;52.67;33.50;;;7.40;99.90;;;;;;5070443;27;20470;-63
2024/03/04 05:15:58;;;;;;;51.07;31.13;;;7.40;99.90;;;;;;5070247;28;20458;-63
2024/03/04 05:18:25;;;;;;;47.77;31.03;;;7.40;99.90;;;;;;5070361;27;20859;-63
2024/03/04 05:20:54;;;;;;;49.87;32.07;;;7.40;99.90;;;;;;5070008;27;20459;-64
2024/03/04 05:23:21;;;;;;;47.10;33.13;;;7.40;99.90;;;;;;5069999;27;20487;-63
2024/03/04 05:25:48;;;;;;;53.97;36.00;;;7.40;99.90;;;;;;5069544;28;20492;-63
2024/03/04 05:28:15;;;;;;;59.33;36.33;;;7.40;99.90;;;;;;5069631;28;20482;-63
2024/03/04 05:30:43;;;;;;;50.40;34.23;;;7.40;99.90;;;;;;5069955;28;20554;-63
2024/03/04 05:33:11;;;;;;;52.40;33.17;;;7.30;99.90;;;;;;5068828;28;20462;-63
2024/03/04 05:35:38;;;;;;;42.87;29.23;;;7.30;99.90;;;;;;5068480;28;20784;-63
2024/03/04 05:38:05;;;;;;;47.17;30.20;;;7.30;99.90;;;;;;5068614;27;20550;-63
2024/03/04 05:40:33;;;;;;;44.50;31.27;;;7.20;99.90;;;;;;5068752;28;20430;-63
2024/03/04 05:43:00;;;;;;;47.50;30.80;;;7.20;99.90;;;;;;5067960;27;20522;-63
2024/03/04 05:45:28;;;;;;;48.23;32.07;;;7.30;99.90;;;;;;5067280;28;20462;-63
2024/03/04 05:47:55;;;;;;;45.77;30.17;;;7.30;99.90;;;;;;5066820;27;20770;-63
2024/03/04 05:50:24;;;;;;;57.23;32.97;;;7.40;99.90;;;;;;5067110;27;20493;-64
2024/03/04 05:52:51;;;;;;;54.63;31.53;;;7.30;99.90;;;;;;5066803;27;20488;-63
2024/03/04 05:55:19;;;;;;;49.63;31.30;;;7.30;99.90;;;;;;5066428;27;20509;-63
2024/03/04 05:57:47;;;;;;;53.00;30.73;;;7.20;99.90;;;;;;5064707;28;20515;-63
2024/03/04 06:00:15;;;;;;;46.20;29.83;;;7.30;99.90;;;;;;5066615;28;20459;-64
2024/03/04 06:02:43;;;;;;;48.63;30.57;;;7.20;99.90;;;;;;5065039;27;20490;-63
2024/03/04 06:05:11;;;;;;;47.30;29.43;;;7.20;99.90;;;;;;5065841;28;20521;-63
2024/03/04 06:07:40;;;;;;;46.63;29.37;;;7.20;99.90;;;;;;5067381;28;20469;-63
2024/03/04 06:10:08;;;;;;;52.33;30.47;;;7.20;99.90;;;;;;5067388;28;20494;-63
2024/03/04 06:12:35;;;;;;;49.90;30.00;;;7.20;99.90;;;;;;5069857;27;20504;-64
2024/03/04 06:15:02;;;;;;;54.57;31.10;;;7.20;99.90;;;;;;5069960;27;20470;-64
2024/03/04 06:17:30;;;;;;;51.80;29.27;;;7.30;99.90;;;;;;5069269;27;20484;-64
2024/03/04 06:19:57;;;;;;;58.50;32.47;;;7.20;99.90;;;;;;5069874;27;20517;-64
2024/03/04 06:22:24;;;;;;;47.57;30.97;;;7.20;99.90;;;;;;5068414;28;20484;-64
2024/03/04 06:24:53;;;;;;;49.30;30.00;;;7.20;99.90;;;;;;5068241;28;20529;-63
2024/03/04 06:27:20;;;;;;;48.83;30.27;;;7.20;99.90;;;;;;5067858;28;20462;-64
2024/03/04 06:29:47;;;;;;;51.27;31.73;;;7.20;99.90;;;;;;5067324;28;20510;-64
2024/03/04 06:32:15;;;;;;;49.43;28.57;;;7.20;99.90;;;;;;5068086;28;20526;-64
2024/03/04 06:34:42;;;;;;;54.37;31.90;;;7.30;99.90;;;;;;5061804;28;20557;-64
2024/03/04 06:37:11;;;;;;;53.40;31.67;;;7.40;99.90;;;;;;5057247;28;20487;-66
2024/03/04 06:39:38;;;;;;;44.27;27.70;;;7.40;99.90;;;;;;5054458;28;20806;-66
2024/03/04 06:42:07;;;;;;;49.10;28.87;;;7.20;99.90;;;;;;5053115;28;20458;-66
2024/03/04 06:44:35;;;;;;;55.83;32.27;;;7.20;99.90;;;;;;5053524;28;20819;-66
2024/03/04 06:47:03;;;;;;;49.57;31.40;;;7.20;99.90;;;;;;5053825;28;20867;-66
2024/03/04 06:49:30;;;;;;;55.43;31.50;;;7.20;99.90;;;;;;5053485;28;20466;-66
2024/03/04 06:51:57;;;;;;;53.43;31.43;;;7.20;99.90;;;;;;5053438;28;20537;-66
2024/03/04 06:54:25;;;;;;;47.87;30.43;;;7.30;99.90;;;;;;5052807;28;20494;-66
2024/03/04 06:56:52;;;;;;;50.17;29.73;;;7.30;99.90;;;;;;5054052;28;20498;-66
2024/03/04 06:59:20;;;;;;;51.03;30.07;;;7.30;99.90;;;;;;5054969;28;20490;-66
2024/03/04 07:01:48;;;;;;;52.77;30.57;;;7.20;99.90;;;;;;5054816;28;20451;-66
2024/03/04 07:04:15;;;;;;;54.33;32.83;;;7.20;99.90;;;;;;5054528;28;20494;-66
2024/03/04 07:06:42;;;;;;;51.10;31.10;;;7.20;99.90;;;;;;5054675;28;20562;-66
2024/03/04 07:09:10;;;;;;;60.43;34.20;;;7.20;99.90;;;;;;5053357;28;20977;-67
2024/03/04 07:11:37;;;;;;;58.90;32.10;;;7.20;99.90;;;;;;5054335;28;20497;-66
2024/03/04 07:14:04;;;;;;;59.57;34.27;;;7.20;99.90;;;;;;5054311;28;20561;-67
2024/03/04 07:16:33;;;;;;;57.07;35.77;;;7.20;99.90;;;;;;5054709;28;20911;-67
2024/03/04 07:19:00;;;;;;;55.90;30.67;;;7.20;99.90;;;;;;5054803;28;20809;-66
2024/03/04 07:21:28;;;;;;;62.53;34.77;;;7.30;99.90;;;;;;5054432;28;20454;-67
2024/03/04 07:23:55;;;;;;;55.60;33.10;;;7.30;99.90;;;;;;5054464;28;20922;-67
2024/03/04 07:26:22;;;;;;;61.60;35.10;;;7.30;99.90;;;;;;5054231;28;20458;-67
2024/03/04 07:28:49;;;;;;;63.23;34.60;;;7.30;99.90;;;;;;5054484;28;20501;-66
2024/03/04 07:31:17;;;;;;;63.40;35.90;;;7.40;99.90;;;;;;5054340;28;20526;-67
2024/03/04 07:33:46;;;;;;;61.17;34.70;;;7.30;99.90;;;;;;5054663;28;20868;-67
2024/03/04 07:36:15;;;;;;;61.50;38.07;;;7.30;99.90;;;;;;5053684;28;20793;-67
2024/03/04 07:38:42;;;;;;;59.20;33.70;;;7.30;99.90;;;;;;5053265;28;20573;-67
2024/03/04 07:41:10;;;;;;;67.27;34.57;;;7.30;99.90;;;;;;5053289;28;20487;-67
2024/03/04 07:43:39;;;;;;;66.70;35.30;;;7.30;99.90;;;;;;5053864;28;20470;-66
2024/03/04 07:46:06;;;;;;;58.57;34.03;;;7.40;99.90;;;;;;5053584;28;20935;-67
2024/03/04 07:48:33;;;;;;;59.90;34.50;;;7.40;99.90;;;;;;5053551;28;20505;-67
2024/03/04 07:51:02;;;;;;;69.23;37.63;;;7.40;99.90;;;;;;5052689;28;20752;-67
2024/03/04 07:53:29;;;;;;;66.20;34.50;;;7.40;99.90;;;;;;5054020;28;20454;-67
2024/03/04 07:55:57;;;;;;;66.50;36.37;;;7.40;99.90;;;;;;5053385;28;20528;-67
2024/03/04 07:58:24;;;;;;;64.70;34.20;;;7.40;99.90;;;;;;5053588;28;20545;-67
2024/03/04 08:00:52;;;;;;;63.17;35.30;;;7.40;99.90;;;;;;5053766;28;20458;-67
2024/03/04 08:03:19;;;;;;;63.03;35.63;;;7.40;99.90;;;;;;5054040;28;20468;-67
2024/03/04 08:05:48;;;;;;;60.77;35.17;;;7.40;99.90;;;;;;5053953;28;20459;-67
2024/03/04 08:08:17;;;;;;;59.03;33.67;;;7.40;99.90;;;;;;5053683;28;20519;-67
2024/03/04 08:10:44;;;;;;;56.80;34.53;;;7.50;99.90;;;;;;5053671;28;20495;-67
2024/03/04 08:13:12;;;;;;;60.97;35.60;;;7.40;99.90;;;;;;5054129;28;20895;-67
2024/03/04 08:15:39;;;;;;;57.40;31.93;;;7.40;99.90;;;;;;5053144;28;20462;-67
2024/03/04 08:18:09;;;;;;;61.37;33.00;;;7.50;99.90;;;;;;5053523;28;20467;-67
2024/03/04 08:20:36;;;;;;;62.63;36.80;;;7.60;99.90;;;;;;5053654;28;20557;-67
2024/03/04 08:23:04;;;;;;;67.47;35.23;;;7.60;99.90;;;;;;5057111;28;20465;-68
2024/03/04 08:25:33;;;;;;;65.17;36.10;;;7.60;99.90;;;;;;5067819;28;20744;-67
2024/03/04 08:28:00;;;;;;;61.73;33.73;;;7.60;99.90;;;;;;5076403;28;20481;-67
2024/03/04 08:30:27;;;;;;;61.97;37.10;;;7.60;99.90;;;;;;5076614;28;20489;-67
2024/03/04 08:32:55;;;;;;;65.37;36.40;;;7.60;99.90;;;;;;5074597;28;20560;-66
2024/03/04 08:35:22;;;;;;;66.90;35.90;;;7.60;99.90;;;;;;5075507;28;20556;-67
2024/03/04 08:37:49;;;;;;;64.47;39.20;;;7.70;99.90;;;;;;5074947;28;20457;-67
2024/03/04 08:40:17;;;;;;;70.60;36.77;;;7.70;99.90;;;;;;5074976;28;20509;-67
2024/03/04 08:42:45;;;;;;;62.30;36.70;;;7.70;99.90;;;;;;5075071;28;20457;-66
2024/03/04 08:45:16;;;;;;;63.63;36.83;;;7.80;99.90;;;;;;5074668;28;20921;-67
2024/03/04 08:47:43;;;;;;;61.30;37.27;;;7.80;99.90;;;;;;5075683;28;20457;-67
2024/03/04 08:50:11;;;;;;;55.07;33.40;;;7.90;99.90;;;;;;5075611;28;20810;-67
2024/03/04 08:52:38;;;;;;;66.87;37.17;;;7.90;99.90;;;;;;5076264;28;20975;-68
2024/03/04 08:55:06;;;;;;;60.83;37.17;;;7.90;99.90;;;;;;5075164;28;20481;-67
2024/03/04 08:57:34;;;;;;;64.93;38.63;;;7.90;99.90;;;;;;5076695;28;20777;-67
2024/03/04 09:00:04;;;;;;;65.47;39.40;;;7.80;99.90;;;;;;5076558;28;20510;-68
2024/03/04 09:02:31;;;;;;;62.87;35.80;;;8.00;99.90;;;;;;5075778;28;20464;-67
2024/03/04 09:04:58;;;;;;;60.60;35.77;;;7.80;99.90;;;;;;5075084;28;20548;-67
2024/03/04 09:07:27;;;;;;;59.63;36.53;;;7.90;99.90;;;;;;5075544;28;20489;-67
2024/03/04 09:09:54;;;;;;;58.33;34.93;;;7.90;99.90;;;;;;5075437;28;20460;-66
2024/03/04 09:12:25;;;;;;;60.57;35.47;;;7.90;99.90;;;;;;5075937;28;20493;-66
2024/03/04 09:14:52;;;;;;;55.97;36.47;;;8.00;99.90;;;;;;5076171;28;20480;-66
2024/03/04 09:17:21;;;;;;;61.70;38.23;;;8.10;99.90;;;;;;5076332;28;20461;-66
2024/03/04 09:19:48;;;;;;;62.73;37.03;;;8.10;99.90;;;;;;5076499;28;20457;-66
2024/03/04 09:22:16;;;;;;;60.10;35.70;;;7.90;99.90;;;;;;5076411;28;20457;-66
2024/03/04 09:24:43;;;;;;;67.43;37.00;;;8.00;99.90;;;;;;5076354;28;20461;-66
2024/03/04 09:27:13;;;;;;;56.97;34.07;;;8.00;99.90;;;;;;5076467;28;20458;-66
2024/03/04 09:29:40;;;;;;;56.17;35.97;;;7.90;99.90;;;;;;5076558;28;20436;-67
2024/03/04 09:32:08;;;;;;;57.40;35.60;;;8.00;99.90;;;;;;5075003;28;20498;-66
2024/03/04 09:34:36;;;;;;;58.87;36.70;;;8.00;99.90;;;;;;5075833;28;20769;-67
2024/03/04 09:37:04;;;;;;;56.57;38.37;;;8.00;99.90;;;;;;5076430;28;20914;-66
2024/03/04 09:39:32;;;;;;;61.73;37.07;;;8.20;99.90;;;;;;5076291;28;20472;-67
2024/03/04 09:42:00;;;;;;;61.93;37.60;;;8.10;99.90;;;;;;5075809;28;20457;-67
2024/03/04 09:44:27;;;;;;;59.50;35.73;;;8.10;99.90;;;;;;5075837;28;20513;-66
2024/03/04 09:46:56;;;;;;;62.37;35.87;;;8.20;99.90;;;;;;5074234;28;20461;-67
2024/03/04 09:49:25;;;;;;;65.83;38.40;;;8.00;99.90;;;;;;5075057;28;20905;-67
2024/03/04 09:51:54;;;;;;;64.43;36.47;;;8.20;99.90;;;;;;5075029;28;20763;-66
2024/03/04 09:54:24;;;;;;;64.30;37.30;;;8.00;99.90;;;;;;5082839;27;20483;-66
2024/03/04 09:56:52;;;;;;;62.40;38.00;;;8.10;99.90;;;;;;5095547;27;20506;-67
2024/03/04 09:59:20;;;;;;;64.50;39.53;;;8.10;99.90;;;;;;5103524;27;20894;-66
2024/03/04 10:01:48;;;;;;;63.63;38.07;;;8.10;99.90;;;;;;5080336;27;20463;-67
2024/03/04 10:04:16;;;;;;;63.03;41.30;;;8.10;99.90;;;;;;5035316;28;20516;-67
2024/03/04 10:06:43;;;;;;;75.43;43.47;;;8.20;99.90;;;;;;5035172;28;20463;-66
2024/03/04 10:09:12;;;;;;;70.03;42.17;;;8.30;99.90;;;;;;5035680;28;20467;-67
2024/03/04 10:11:40;;;;;;;65.00;41.67;;;8.40;99.90;;;;;;5035980;28;20769;-67
2024/03/04 10:14:08;;;;;;;68.50;41.53;;;8.40;99.90;;;;;;5035586;28;20512;-67
2024/03/04 10:16:36;;;;;;;64.00;38.47;;;8.40;99.90;;;;;;5035625;28;20463;-67
2024/03/04 10:19:04;;;;;;;68.07;41.13;;;8.40;99.90;;;;;;5035772;28;20506;-67
2024/03/04 10:21:32;;;;;;;65.40;41.27;;;8.40;99.90;;;;;;5035551;28;20459;-66
2024/03/04 10:24:07;;;;;;;71.80;44.90;;;8.20;99.90;;;;;;5035453;28;20558;-61
2024/03/04 10:26:42;;;;;;;69.67;40.60;;;8.30;99.90;;;;;;5035832;28;20890;-61
2024/03/04 10:29:12;;;;;;;64.53;40.67;;;8.30;99.90;;;;;;5035699;28;20907;-61
2024/03/04 10:31:49;;;;;;;67.37;40.17;;;8.30;99.90;;;;;;5035524;28;20494;-61
2024/03/04 10:34:16;;;;;;;71.00;42.57;;;8.10;99.90;;;;;;5035670;28;20938;-61
2024/03/04 10:36:47;;;;;;;69.77;41.70;;;8.10;99.90;;;;;;5035379;28;20808;-61
2024/03/04 10:39:16;;;;;;;72.37;42.10;;;8.20;99.90;;;;;;5035767;28;20572;-60
2024/03/04 10:41:48;;;;;;;74.60;44.17;;;8.20;99.90;;;;;;5036344;27;20448;-61
2024/03/04 10:44:25;;;;;;;74.20;44.73;;;8.20;99.90;;;;;;5034939;28;20510;-60
2024/03/04 10:46:55;;;;;;;75.23;43.07;;;8.20;99.90;;;;;;5033986;28;20505;-61
2024/03/04 10:49:24;;;;;;;75.00;44.17;;;8.20;99.90;;;;;;5035050;28;20455;-61
2024/03/04 10:51:52;;;;;;;72.07;43.30;;;8.30;99.90;;;;;;5043159;27;20495;-61
2024/03/04 10:54:22;;;;;;;77.37;44.17;;;8.30;99.90;;;;;;5143211;27;20482;-60
2024/03/04 10:56:58;;;;;;;74.43;43.40;;;8.30;99.90;;;;;;5158822;27;20453;-61
2024/03/04 10:59:37;;;;;;;74.23;43.80;;;8.30;99.90;;;;;;5158557;27;20480;-61
2024/03/04 11:02:12;;;;;;;78.47;45.07;;;8.30;99.90;;;;;;5159261;27;20938;-61
2024/03/04 11:04:41;;;;;;;72.17;43.80;;;8.40;99.90;;;;;;5108779;27;20459;-61
2024/03/04 11:07:12;;;;;;;63.67;41.17;;;8.40;99.90;;;;;;5150704;27;20454;-61
2024/03/04 11:09:44;;;;;;;66.60;42.50;;;8.30;99.90;;;;;;5157448;27;20538;-61
2024/03/04 11:12:14;;;;;;;77.00;43.27;;;8.30;99.90;;;;;;5157841;27;20958;-61
2024/03/04 11:14:47;;;;;;;70.50;43.80;;;8.30;99.90;;;;;;5157947;27;20860;-61
2024/03/04 11:17:20;;;;;;;63.37;40.80;;;8.20;99.90;;;;;;5158165;27;20454;-61
2024/03/04 11:19:52;;;;;;;61.07;38.67;;;8.30;99.90;;;;;;5159304;27;20544;-60
2024/03/04 11:22:20;;;;;;;63.57;40.17;;;8.20;99.90;;;;;;5159112;27;20523;-60
2024/03/04 11:24:49;;;;;;;68.23;41.20;;;8.20;99.90;;;;;;5129173;27;20471;-61
2024/03/04 11:27:19;;;;;;;64.27;39.93;;;8.20;99.90;;;;;;5054603;28;20485;-61
2024/03/04 11:29:49;;;;;;;77.57;44.23;;;8.20;99.90;;;;;;5054635;28;20880;-61
2024/03/04 11:32:26;;;;;;;69.10;39.53;;;8.00;99.90;;;;;;5033900;28;20590;-60
2024/03/04 11:35:05;;;;;;;66.27;40.67;;;7.90;99.90;;;;;;5051072;28;20481;-60
2024/03/04 11:37:48;;;;;;;61.23;38.20;;;8.10;99.90;;;;;;5053320;28;20455;-61
2024/03/04 11:40:17;;;;;;;57.77;34.23;;;8.00;99.90;;;;;;5053391;28;20884;-61
2024/03/04 11:42:47;;;;;;;51.57;34.53;;;8.10;99.90;;;;;;5056359;28;20505;-60
2024/03/04 11:45:15;;;;;;;56.03;32.90;;;8.10;99.90;;;;;;5052724;27;20530;-61
2024/03/04 11:47:43;;;;;;;59.00;33.87;;;8.10;99.90;;;;;;5034504;28;20455;-60
2024/03/04 11:50:46;;;;;;;58.07;34.57;;;8.00;99.90;;;;;;5035532;28;20543;-60
2024/03/04 11:53:30;;;;;;;54.97;34.23;;;7.90;99.90;;;;;;5056585;28;20497;-62
2024/03/04 11:55:57;;;;;;;58.57;35.60;;;7.90;99.90;;;;;;5054961;28;20490;-63
2024/03/04 11:58:27;;;;;;;61.80;37.93;;;7.90;99.90;;;;;;5078706;27;20887;-63
2024/03/04 12:00:56;;;;;;;63.27;37.77;;;8.00;99.90;;;;;;5041043;27;20778;-63
2024/03/04 12:03:23;;;;;;;67.40;37.80;;;8.10;99.90;;;;;;5083195;27;20740;-62
2024/03/04 12:05:51;;;;;;;62.97;38.63;;;8.10;99.90;;;;;;5108035;27;20456;-62
2024/03/04 12:08:18;;;;;;;64.83;37.60;;;8.10;99.90;;;;;;5072364;27;20542;-62
2024/03/04 12:10:46;;;;;;;61.70;37.10;;;8.10;99.90;;;;;;5146133;27;20461;-63
2024/03/04 12:13:13;;;;;;;58.90;36.93;;;8.10;99.90;;;;;;5164559;27;20488;-62
2024/03/04 12:15:42;;;;;;;60.40;37.40;;;8.10;99.90;;;;;;5165341;27;20458;-63
2024/03/04 12:18:09;;;;;;;57.70;36.37;;;8.00;99.90;;;;;;5165829;27;20485;-62
2024/03/04 12:20:37;;;;;;;71.00;36.03;;;8.10;99.90;;;;;;5164910;27;20457;-62
2024/03/04 12:23:05;;;;;;;56.97;36.37;;;8.00;99.90;;;;;;5164402;27;20458;-62
2024/03/04 12:25:33;;;;;;;53.20;33.57;;;8.10;99.90;;;;;;5163409;27;20459;-62
2024/03/04 12:28:00;;;;;;;51.10;31.27;;;8.20;99.90;;;;;;5164001;27;20453;-62
2024/03/04 12:30:28;;;;;;;52.10;31.10;;;8.20;99.90;;;;;;5163969;27;20461;-61
2024/03/04 12:33:01;;;;;;;49.30;30.17;;;8.00;99.90;;;;;;5163316;27;20493;-61
2024/03/04 12:35:31;;;;;;;50.30;30.00;;;8.10;99.90;;;;;;5164432;27;20554;-61
2024/03/04 12:37:59;;;;;;;47.27;31.60;;;8.00;99.90;;;;;;5165361;27;20453;-61
2024/03/04 12:40:28;;;;;;;51.83;33.60;;;8.00;99.90;;;;;;5165343;27;20883;-60
2024/03/04 12:42:58;;;;;;;54.00;34.03;;;8.00;99.90;;;;;;5165518;27;20457;-61